createdAt,value
2022-09-15T00:01:12.016Z,22.20
2022-09-15T00:03:39.900Z,22.10
2022-09-15T00:06:07.456Z,22.10
2022-09-15T00:08:34.588Z,22.10
2022-09-15T00:11:25.626Z,22.20
2022-09-15T00:13:53.914Z,22.20
2022-09-15T00:16:24.127Z,22.20
2022-09-15T00:18:51.388Z,22.10
2022-09-15T00:21:23.827Z,22.10
2022-09-15T00:23:51.283Z,22.10
2022-09-15T00:26:25.756Z,22.20
2022-09-15T00:28:53.358Z,22.20
2022-09-15T00:31:22.465Z,22.20
2022-09-15T00:33:53.331Z,22.20
2022-09-15T00:36:22.149Z,22.20
2022-09-15T00:38:49.652Z,22.20
2022-09-15T00:41:20.022Z,22.20
2022-09-15T00:43:57.223Z,22.20
2022-09-15T00:46:34.761Z,22.20
2022-09-15T00:49:20.654Z,22.20
2022-09-15T00:52:09.925Z,22.20
2022-09-15T00:54:58.790Z,22.20
2022-09-15T00:57:31.091Z,22.20
2022-09-15T01:00:02.608Z,22.30
2022-09-15T01:02:33.723Z,22.20
2022-09-15T01:05:04.775Z,22.20
2022-09-15T01:07:56.164Z,22.20
2022-09-15T01:10:27.140Z,22.20
2022-09-15T01:13:10.962Z,22.10
2022-09-15T01:16:34.671Z,22.10
2022-09-15T01:19:47.469Z,22.10
2022-09-15T01:22:36.150Z,22.10
2022-09-15T01:25:14.563Z,22.00
2022-09-15T01:28:17.346Z,22.00
2022-09-15T01:31:03.537Z,21.90
2022-09-15T01:34:06.345Z,21.90
2022-09-15T01:36:38.944Z,21.90
2022-09-15T01:39:20.179Z,21.90
2022-09-15T01:42:02.123Z,21.90
2022-09-15T01:44:37.709Z,21.80
2022-09-15T01:47:10.626Z,21.80
2022-09-15T01:49:55.155Z,21.70
2022-09-15T01:52:24.466Z,21.70
2022-09-15T01:55:00.276Z,21.80
2022-09-15T01:57:28.143Z,21.70
2022-09-15T01:59:56.435Z,21.70
2022-09-15T02:02:42.903Z,21.70
2022-09-15T02:05:42.547Z,21.70
2022-09-15T02:08:25.440Z,21.70
2022-09-15T02:11:13.849Z,21.70
2022-09-15T02:14:20.778Z,21.60
2022-09-15T02:16:53.550Z,21.60
2022-09-15T02:19:41.650Z,21.60
2022-09-15T02:22:27.865Z,21.60
2022-09-15T02:25:05.791Z,21.60
2022-09-15T02:27:44.263Z,21.60
2022-09-15T02:30:15.139Z,21.60
2022-09-15T02:32:56.722Z,21.60
2022-09-15T02:35:27.067Z,21.60
2022-09-15T02:37:56.216Z,21.60
2022-09-15T02:40:23.489Z,21.50
2022-09-15T02:42:56.894Z,21.50
2022-09-15T02:45:25.525Z,21.50
2022-09-15T02:47:52.633Z,21.50
2022-09-15T02:50:20.437Z,21.50
2022-09-15T02:52:47.355Z,21.50
2022-09-15T02:55:14.173Z,21.40
2022-09-15T02:57:40.954Z,21.50
2022-09-15T03:00:16.785Z,21.40
2022-09-15T03:02:47.309Z,21.40
2022-09-15T03:05:16.127Z,21.40
2022-09-15T03:07:43.418Z,21.40
2022-09-15T03:10:12.626Z,21.40
2022-09-15T03:12:40.864Z,21.40
2022-09-15T03:15:10.659Z,21.40
2022-09-15T03:17:41.456Z,21.40
2022-09-15T03:20:11.366Z,21.40
2022-09-15T03:22:38.437Z,21.30
2022-09-15T03:25:06.588Z,21.30
2022-09-15T03:27:35.439Z,21.30
2022-09-15T03:30:02.787Z,21.30
2022-09-15T03:32:29.669Z,21.30
2022-09-15T03:34:58.584Z,21.30
2022-09-15T03:37:26.536Z,21.30
2022-09-15T03:39:53.453Z,21.30
2022-09-15T03:42:20.777Z,21.30
2022-09-15T03:44:47.565Z,21.30
2022-09-15T03:47:14.443Z,21.30
2022-09-15T03:49:41.246Z,21.30
2022-09-15T03:52:08.239Z,21.30
2022-09-15T03:54:35.493Z,21.30
2022-09-15T03:57:03.468Z,21.30
2022-09-15T03:59:30.261Z,21.30
2022-09-15T04:01:57.148Z,21.30
2022-09-15T04:04:24.009Z,21.30
2022-09-15T04:06:50.835Z,21.30
2022-09-15T04:09:20.265Z,21.20
2022-09-15T04:11:47.812Z,21.30
2022-09-15T04:14:14.708Z,21.20
2022-09-15T04:16:41.610Z,21.30
2022-09-15T04:19:08.534Z,21.30
2022-09-15T04:21:35.359Z,21.30
2022-09-15T04:24:04.667Z,21.20
2022-09-15T04:26:35.422Z,21.30
2022-09-15T04:29:05.287Z,21.20
2022-09-15T04:31:33.840Z,21.20
2022-09-15T04:34:00.800Z,21.20
2022-09-15T04:36:29.455Z,21.20
2022-09-15T04:38:57.292Z,21.20
2022-09-15T04:41:26.348Z,21.20
2022-09-15T04:43:54.183Z,21.20
2022-09-15T04:46:21.899Z,21.20
2022-09-15T04:48:49.320Z,21.20
2022-09-15T04:51:21.379Z,21.20
2022-09-15T04:53:49.338Z,21.20
2022-09-15T04:56:21.381Z,21.20
2022-09-15T04:59:03.199Z,21.20
2022-09-15T05:01:35.087Z,21.20
2022-09-15T05:04:04.035Z,21.20
2022-09-15T05:06:31.146Z,21.20
2022-09-15T05:08:58.556Z,21.10
2022-09-15T05:11:27.164Z,21.20
2022-09-15T05:13:54.834Z,21.10
2022-09-15T05:16:24.159Z,21.10
2022-09-15T05:18:54.106Z,21.20
2022-09-15T05:21:23.902Z,21.10
2022-09-15T05:23:52.041Z,21.20
2022-09-15T05:26:30.140Z,21.10
2022-09-15T05:28:57.476Z,21.10
2022-09-15T05:31:32.007Z,21.10
2022-09-15T05:34:03.034Z,21.10
2022-09-15T05:36:30.574Z,21.10
2022-09-15T05:38:58.068Z,21.10
2022-09-15T05:41:26.902Z,21.10
2022-09-15T05:43:56.987Z,21.10
2022-09-15T05:46:29.081Z,21.10
2022-09-15T05:48:58.140Z,21.10
2022-09-15T05:51:25.168Z,21.10
2022-09-15T05:53:52.341Z,21.10
2022-09-15T05:56:20.152Z,21.10
2022-09-15T05:58:48.913Z,21.10
2022-09-15T06:01:20.723Z,21.10
2022-09-15T06:03:48.667Z,21.10
2022-09-15T06:06:16.520Z,21.10
2022-09-15T06:08:55.323Z,21.10
2022-09-15T06:11:30.759Z,21.10
2022-09-15T06:14:03.147Z,21.10
2022-09-15T06:16:34.931Z,21.10
2022-09-15T06:19:02.146Z,21.10
2022-09-15T06:21:32.225Z,21.10
2022-09-15T06:24:03.486Z,21.10
2022-09-15T06:26:30.404Z,21.10
2022-09-15T06:29:00.910Z,21.10
2022-09-15T06:31:31.479Z,21.10
2022-09-15T06:33:59.614Z,21.10
2022-09-15T06:36:29.662Z,21.00
2022-09-15T06:38:57.243Z,21.00
2022-09-15T06:41:24.032Z,21.10
2022-09-15T06:43:50.926Z,21.10
2022-09-15T06:46:25.152Z,21.10
2022-09-15T06:48:53.592Z,21.10
2022-09-15T06:51:24.610Z,21.10
2022-09-15T06:53:53.423Z,21.00
2022-09-15T06:56:23.467Z,21.10
2022-09-15T06:58:50.561Z,21.10
2022-09-15T07:01:29.872Z,21.10
2022-09-15T07:04:00.873Z,21.10
2022-09-15T07:06:30.155Z,21.10
2022-09-15T07:08:58.524Z,21.10
2022-09-15T07:11:26.442Z,21.10
2022-09-15T07:13:53.390Z,21.10
2022-09-15T07:16:21.672Z,21.20
2022-09-15T07:18:49.171Z,21.20
2022-09-15T07:21:20.097Z,21.20
2022-09-15T07:23:48.860Z,21.20
2022-09-15T07:26:24.326Z,21.30
2022-09-15T07:28:55.820Z,21.30
2022-09-15T07:31:25.665Z,21.30
2022-09-15T07:33:53.334Z,21.40
2022-09-15T07:36:20.869Z,21.40
2022-09-15T07:38:49.967Z,21.40
2022-09-15T07:41:18.580Z,21.50
2022-09-15T07:43:50.961Z,21.50
2022-09-15T07:46:20.412Z,21.50
2022-09-15T07:48:49.903Z,21.50
2022-09-15T07:51:18.005Z,21.60
2022-09-15T07:53:47.200Z,21.60
2022-09-15T07:56:14.598Z,21.60
2022-09-15T07:58:41.403Z,21.60
2022-09-15T08:01:14.772Z,21.60
2022-09-15T08:03:44.238Z,21.60
2022-09-15T08:06:12.445Z,21.70
2022-09-15T08:08:40.611Z,21.70
2022-09-15T08:11:18.850Z,21.70
2022-09-15T08:13:51.109Z,21.80
2022-09-15T08:16:24.376Z,21.80
2022-09-15T08:18:54.078Z,21.80
2022-09-15T08:21:22.450Z,21.90
2022-09-15T08:23:59.764Z,21.90
2022-09-15T08:26:28.989Z,22.10
2022-09-15T08:28:56.101Z,22.10
2022-09-15T08:31:24.356Z,22.20
2022-09-15T08:33:53.902Z,22.20
2022-09-15T08:36:21.657Z,22.20
2022-09-15T08:38:48.849Z,22.30
2022-09-15T08:41:31.207Z,22.40
2022-09-15T08:44:37.759Z,22.40
2022-09-15T08:47:29.602Z,22.40
2022-09-15T08:50:20.559Z,22.50
2022-09-15T08:53:12.813Z,22.50
2022-09-15T08:55:49.412Z,22.50
2022-09-15T08:58:24.599Z,22.50
2022-09-15T09:01:18.305Z,22.50
2022-09-15T09:04:28.399Z,22.50
2022-09-15T09:07:20.199Z,22.50
2022-09-15T09:10:09.055Z,22.50
2022-09-15T09:12:44.689Z,22.50
2022-09-15T09:15:49.647Z,22.50
2022-09-15T09:19:00.092Z,22.50
2022-09-15T09:21:37.644Z,22.50
2022-09-15T09:24:42.095Z,22.40
2022-09-15T09:27:20.081Z,22.40
2022-09-15T09:29:51.938Z,22.40
2022-09-15T09:32:38.603Z,22.40
2022-09-15T09:35:18.707Z,22.40
2022-09-15T09:37:45.685Z,22.40
2022-09-15T09:40:14.996Z,22.40
2022-09-15T09:42:43.889Z,22.40
2022-09-15T09:45:19.586Z,22.40
2022-09-15T09:47:46.475Z,22.50
2022-09-15T09:50:45.284Z,22.50
2022-09-15T09:53:18.230Z,22.50
2022-09-15T09:55:45.920Z,22.60
2022-09-15T09:58:19.182Z,22.60
2022-09-15T10:00:47.124Z,22.60
2022-09-15T10:03:29.401Z,22.60
2022-09-15T10:06:14.147Z,22.60
2022-09-15T10:09:08.878Z,22.70
2022-09-15T10:12:01.042Z,22.80
2022-09-15T10:14:41.835Z,22.80
2022-09-15T10:17:22.595Z,22.80
2022-09-15T10:19:58.026Z,22.90
2022-09-15T10:22:38.194Z,23.00
2022-09-15T10:25:39.474Z,23.00
2022-09-15T10:28:17.736Z,23.00
2022-09-15T10:31:10.869Z,23.10
2022-09-15T10:33:44.824Z,23.10
2022-09-15T10:36:32.123Z,23.20
2022-09-15T10:39:32.251Z,23.20
2022-09-15T10:42:17.622Z,23.20
2022-09-15T10:45:23.426Z,23.20
2022-09-15T10:48:30.231Z,23.20
2022-09-15T10:51:40.342Z,23.20
2022-09-15T10:54:41.191Z,23.10
2022-09-15T11:00:20.994Z,23.00
2022-09-15T11:03:24.374Z,22.80
2022-09-15T11:06:05.933Z,22.60
2022-09-15T11:08:50.593Z,22.40
2022-09-15T11:11:42.021Z,22.20
2022-09-15T11:14:43.102Z,22.10
2022-09-15T11:17:35.062Z,21.90
2022-09-15T11:20:35.429Z,21.70
2022-09-15T11:23:32.776Z,21.70
2022-09-15T11:26:35.469Z,21.50
2022-09-15T11:29:37.482Z,21.40
2022-09-15T11:32:14.934Z,21.30
2022-09-15T11:34:56.887Z,21.30
2022-09-15T11:37:50.567Z,21.20
2022-09-15T11:40:22.786Z,21.10
2022-09-15T11:43:00.098Z,21.10
2022-09-15T11:45:35.315Z,21.00
2022-09-15T11:48:33.666Z,20.90
2022-09-15T11:51:03.253Z,20.90
2022-09-15T11:53:55.743Z,20.90
2022-09-15T11:56:42.198Z,20.80
2022-09-15T11:59:36.409Z,20.90
2022-09-15T12:02:28.281Z,20.90
2022-09-15T12:05:10.273Z,20.90
2022-09-15T12:08:10.112Z,20.90
2022-09-15T12:10:56.759Z,20.90
2022-09-15T12:13:26.161Z,20.90
2022-09-15T12:15:53.955Z,20.80
2022-09-15T12:19:06.946Z,20.90
2022-09-15T12:22:01.913Z,20.90
2022-09-15T12:24:45.793Z,20.80
2022-09-15T12:27:18.944Z,20.80
2022-09-15T12:30:00.510Z,20.90
2022-09-15T12:32:29.999Z,20.90
2022-09-15T12:35:17.822Z,20.90
2022-09-15T12:37:54.442Z,21.00
2022-09-15T12:40:42.393Z,21.00
2022-09-15T12:43:15.932Z,21.10
2022-09-15T12:45:55.386Z,21.20
2022-09-15T12:48:33.993Z,21.20
2022-09-15T12:51:10.791Z,21.30
2022-09-15T12:53:52.715Z,21.40
2022-09-15T12:56:31.087Z,21.40
2022-09-15T12:59:07.658Z,21.40
2022-09-15T13:01:50.977Z,21.50
2022-09-15T13:04:43.528Z,21.50
2022-09-15T13:07:16.404Z,21.60
2022-09-15T13:09:57.866Z,21.60
2022-09-15T13:12:33.648Z,21.60
2022-09-15T13:15:07.028Z,21.60
2022-09-15T13:17:34.879Z,21.70
2022-09-15T13:20:15.362Z,21.70
2022-09-15T13:22:51.521Z,21.70
2022-09-15T13:25:31.175Z,21.80
2022-09-15T13:28:03.578Z,21.80
2022-09-15T13:30:47.411Z,21.80
2022-09-15T13:40:42.390Z,22.00
2022-09-15T13:43:41.450Z,22.10
2022-09-15T13:46:49.025Z,22.10
2022-09-15T13:49:39.271Z,22.10
2022-09-15T13:52:20.702Z,22.20
2022-09-15T13:55:17.760Z,22.30
2022-09-15T14:00:49.075Z,22.40
2022-09-15T14:03:25.680Z,22.30
2022-09-15T14:05:54.268Z,22.40
2022-09-15T14:08:33.254Z,22.40
2022-09-15T14:11:08.235Z,22.50
2022-09-15T14:13:41.015Z,22.50
2022-09-15T14:16:37.845Z,22.60
2022-09-15T14:19:31.116Z,22.70
2022-09-15T14:21:58.817Z,22.80
2022-09-15T14:24:32.406Z,23.00
2022-09-15T14:27:07.267Z,23.10
2022-09-15T14:29:40.265Z,23.20
2022-09-15T14:32:11.443Z,23.40
2022-09-15T14:34:38.957Z,23.60
2022-09-15T14:37:08.062Z,23.70
2022-09-15T14:39:37.541Z,23.90
2022-09-15T14:42:32.424Z,24.00
2022-09-15T14:48:07.458Z,24.30
2022-09-15T14:50:35.520Z,24.50
2022-09-15T14:53:05.974Z,24.60
2022-09-15T14:56:04.371Z,24.70
2022-09-15T14:58:44.681Z,24.90
2022-09-15T15:01:25.540Z,25.00
2022-09-15T15:04:24.582Z,25.10
2022-09-15T15:07:22.619Z,25.20
2022-09-15T15:10:04.323Z,25.30
2022-09-15T15:12:37.176Z,25.40
2022-09-15T15:15:06.852Z,25.50
2022-09-15T15:17:39.894Z,25.50
2022-09-15T15:20:06.659Z,25.60
2022-09-15T15:22:34.128Z,25.60
2022-09-15T15:25:00.957Z,25.70
2022-09-15T15:27:33.914Z,25.70
2022-09-15T15:30:29.470Z,25.70
2022-09-15T15:33:19.701Z,25.70
2022-09-15T15:35:48.479Z,25.70
2022-09-15T15:38:19.463Z,25.70
2022-09-15T15:40:46.953Z,25.80
2022-09-15T15:43:13.639Z,25.80
2022-09-15T15:46:02.179Z,25.80
2022-09-15T15:48:37.861Z,25.80
2022-09-15T15:51:07.359Z,25.80
2022-09-15T15:53:34.425Z,25.70
2022-09-15T15:56:01.818Z,25.70
2022-09-15T15:58:28.591Z,25.60
2022-09-15T16:00:57.031Z,25.60
2022-09-15T16:03:25.585Z,25.50
2022-09-15T16:05:59.673Z,25.40
2022-09-15T16:08:38.685Z,25.30
2022-09-15T16:11:09.693Z,25.20
2022-09-15T16:13:36.529Z,25.10
2022-09-15T16:16:23.961Z,25.00
2022-09-15T16:18:51.204Z,24.90
2022-09-15T16:21:38.274Z,24.90
2022-09-15T16:24:09.750Z,24.80
2022-09-15T16:26:36.579Z,24.80
2022-09-15T16:29:03.424Z,24.70
2022-09-15T16:31:31.650Z,24.70
2022-09-15T16:33:58.617Z,24.60
2022-09-15T16:36:26.584Z,24.50
2022-09-15T16:38:53.648Z,24.50
2022-09-15T16:41:25.727Z,24.40
2022-09-15T16:44:02.535Z,24.30
2022-09-15T16:46:29.757Z,24.20
2022-09-15T16:48:57.228Z,24.20
2022-09-15T16:51:29.911Z,24.10
2022-09-15T16:53:58.831Z,24.00
2022-09-15T16:56:26.966Z,23.90
2022-09-15T16:58:59.546Z,23.80
2022-09-15T17:01:27.641Z,23.70
2022-09-15T17:03:54.953Z,23.60
2022-09-15T17:06:22.165Z,23.50
2022-09-15T17:08:49.463Z,23.40
2022-09-15T17:11:19.920Z,23.30
2022-09-15T17:13:47.481Z,23.20
2022-09-15T17:16:19.400Z,23.10
2022-09-15T17:18:46.881Z,23.00
2022-09-15T17:21:16.426Z,22.90
2022-09-15T17:23:49.375Z,22.70
2022-09-15T17:26:24.000Z,22.60
2022-09-15T17:28:53.426Z,22.50
2022-09-15T17:31:23.492Z,22.40
2022-09-15T17:33:51.590Z,22.30
2022-09-15T17:36:18.914Z,22.30
2022-09-15T17:38:45.987Z,22.20
2022-09-15T17:41:21.473Z,22.10
2022-09-15T17:43:48.348Z,22.00
2022-09-15T17:46:16.646Z,21.90
2022-09-15T17:48:43.530Z,21.80
2022-09-15T17:51:17.415Z,21.70
2022-09-15T17:53:46.703Z,21.70
2022-09-15T17:56:13.879Z,21.60
2022-09-15T17:58:41.385Z,21.50
2022-09-15T18:01:12.201Z,21.40
2022-09-15T18:03:39.338Z,21.40
2022-09-15T18:06:08.371Z,21.30
2022-09-15T18:08:36.336Z,21.30
2022-09-15T18:11:06.034Z,21.20
2022-09-15T18:13:34.023Z,21.10
2022-09-15T18:16:12.990Z,21.10
2022-09-15T18:18:40.861Z,21.10
2022-09-15T18:21:16.695Z,21.00
2022-09-15T18:23:45.044Z,21.00
2022-09-15T18:26:11.843Z,21.00
2022-09-15T18:28:38.648Z,20.90
2022-09-15T18:31:05.822Z,20.80
2022-09-15T18:33:32.626Z,20.80
2022-09-15T18:35:59.412Z,20.70
2022-09-15T18:38:27.794Z,20.70
2022-09-15T18:40:56.974Z,20.70
2022-09-15T18:43:27.155Z,20.60
2022-09-15T18:45:59.943Z,20.50
2022-09-15T18:48:27.407Z,20.50
2022-09-15T18:50:54.923Z,20.40
2022-09-15T18:53:21.939Z,20.40
2022-09-15T18:55:48.810Z,20.30
2022-09-15T18:58:15.721Z,20.20
2022-09-15T19:00:45.633Z,20.20
2022-09-15T19:03:14.001Z,20.20
2022-09-15T19:05:40.811Z,20.10
2022-09-15T19:08:09.115Z,20.10
2022-09-15T19:10:35.959Z,20.10
2022-09-15T19:13:02.766Z,20.10
2022-09-15T19:15:31.256Z,20.10
2022-09-15T19:17:58.092Z,20.00
2022-09-15T19:20:25.135Z,20.00
2022-09-15T19:22:51.961Z,20.00
2022-09-15T19:25:19.090Z,20.00
2022-09-15T19:27:47.820Z,20.00
2022-09-15T19:30:15.100Z,19.90
2022-09-15T19:32:43.178Z,19.90
2022-09-15T19:35:11.304Z,19.90
2022-09-15T19:37:40.770Z,19.90
2022-09-15T19:40:12.432Z,19.90
2022-09-15T19:42:41.567Z,19.90
2022-09-15T19:45:10.390Z,19.90
2022-09-15T19:47:38.651Z,19.80
2022-09-15T19:50:08.570Z,19.80
2022-09-15T19:52:35.811Z,19.80
2022-09-15T19:55:03.095Z,19.80
2022-09-15T19:57:29.858Z,19.80
2022-09-15T19:59:56.654Z,19.70
2022-09-15T20:02:23.471Z,19.70
2022-09-15T20:04:50.339Z,19.70
2022-09-15T20:07:17.161Z,19.70
2022-09-15T20:09:44.191Z,19.70
2022-09-15T20:12:11.173Z,19.60
2022-09-15T20:14:38.091Z,19.70
2022-09-15T20:17:05.422Z,19.60
2022-09-15T20:19:32.542Z,19.60
2022-09-15T20:21:59.408Z,19.60
2022-09-15T20:24:26.310Z,19.60
2022-09-15T20:26:53.750Z,19.60
2022-09-15T20:29:21.043Z,19.50
2022-09-15T20:31:48.425Z,19.50
2022-09-15T20:34:15.713Z,19.50
2022-09-15T20:36:44.443Z,19.50
2022-09-15T20:39:15.367Z,19.40
2022-09-15T20:41:45.960Z,19.40
2022-09-15T20:44:13.816Z,19.30
2022-09-15T20:46:40.864Z,19.40
2022-09-15T20:49:08.917Z,19.30
2022-09-15T20:51:35.777Z,19.30
2022-09-15T20:54:04.259Z,19.30
2022-09-15T20:56:34.998Z,19.20
2022-09-15T20:59:04.063Z,19.20
2022-09-15T21:01:37.444Z,19.20
2022-09-15T21:04:06.836Z,19.20
2022-09-15T21:06:34.529Z,19.10
2022-09-15T21:09:01.703Z,19.10
2022-09-15T21:11:29.599Z,19.10
2022-09-15T21:13:57.709Z,19.10
2022-09-15T21:16:27.875Z,19.10
2022-09-15T21:18:57.478Z,19.00
2022-09-15T21:21:31.273Z,19.00
2022-09-15T21:24:03.744Z,19.00
2022-09-15T21:27:00.724Z,19.00
2022-09-15T21:29:28.881Z,19.00
2022-09-15T21:31:56.383Z,18.90
2022-09-15T21:34:23.967Z,18.90
2022-09-15T21:36:51.772Z,18.90
2022-09-15T21:39:18.624Z,18.90
2022-09-15T21:41:45.459Z,18.80
2022-09-15T21:44:12.227Z,18.80
2022-09-15T21:46:39.769Z,18.80
2022-09-15T21:49:06.577Z,18.70
2022-09-15T21:51:33.437Z,18.70
2022-09-15T21:54:00.708Z,18.70
2022-09-15T21:56:29.645Z,18.70
2022-09-15T21:58:56.990Z,18.70
2022-09-15T22:01:30.652Z,18.70
2022-09-15T22:04:00.855Z,18.60
2022-09-15T22:06:34.439Z,18.60
2022-09-15T22:09:12.988Z,18.60
2022-09-15T22:11:40.001Z,18.50
2022-09-15T22:14:10.476Z,18.50
2022-09-15T22:16:40.551Z,18.50
2022-09-15T22:19:09.985Z,18.40
2022-09-15T22:21:41.492Z,18.50
2022-09-15T22:24:12.670Z,18.40
2022-09-15T22:26:41.105Z,18.40
2022-09-15T22:29:07.963Z,18.40
2022-09-15T22:31:35.927Z,18.40
2022-09-15T22:34:03.487Z,18.40
2022-09-15T22:36:31.786Z,18.40
2022-09-15T22:39:06.565Z,18.40
2022-09-15T22:41:38.656Z,18.30
2022-09-15T22:44:07.591Z,18.30
2022-09-15T22:46:34.854Z,18.30
2022-09-15T22:49:01.972Z,18.30
2022-09-15T22:51:29.074Z,18.30
2022-09-15T22:53:57.061Z,18.30
2022-09-15T22:56:26.028Z,18.30
2022-09-15T22:58:55.571Z,18.20
2022-09-15T23:01:27.692Z,18.20
2022-09-15T23:03:58.788Z,18.20
2022-09-15T23:06:31.077Z,18.20
2022-09-15T23:09:01.984Z,18.10
2022-09-15T23:11:32.838Z,18.10
2022-09-15T23:14:00.443Z,18.10
2022-09-15T23:16:28.430Z,18.10
2022-09-15T23:18:55.427Z,18.10
2022-09-15T23:21:22.762Z,18.00
2022-09-15T23:23:50.124Z,18.00
2022-09-15T23:26:21.991Z,18.00
2022-09-15T23:28:51.390Z,18.00
2022-09-15T23:31:19.503Z,18.00
2022-09-15T23:33:47.580Z,17.90
2022-09-15T23:36:21.821Z,17.90
2022-09-15T23:38:49.569Z,17.90
2022-09-15T23:41:17.611Z,17.90
2022-09-15T23:43:45.181Z,17.90
2022-09-15T23:46:12.714Z,17.90
2022-09-15T23:48:39.543Z,17.90
2022-09-15T23:51:06.377Z,17.90
2022-09-15T23:53:34.175Z,17.90
2022-09-15T23:56:01.499Z,17.80
2022-09-15T23:58:28.377Z,17.90
